createdAt,value
2022-10-02T00:06:48.000Z,977.5
2022-10-02T00:36:52.000Z,977.2
2022-10-02T01:06:58.324Z,977.6
2022-10-02T01:37:02.000Z,977.6
2022-10-02T02:07:09.000Z,977.4
2022-10-02T02:37:11.325Z,977.4
2022-10-02T03:07:20.000Z,977.6
2022-10-02T03:37:22.000Z,977.6
2022-10-02T04:07:24.000Z,977.3
2022-10-02T04:37:28.000Z,977.5
2022-10-02T05:07:37.000Z,977.1
2022-10-02T05:37:38.000Z,977.1
2022-10-02T06:07:42.000Z,977.1
2022-10-02T06:37:43.000Z,977.1
2022-10-02T07:07:46.000Z,976.7
2022-10-02T07:37:52.000Z,976.4
2022-10-02T08:07:55.000Z,976.5
2022-10-02T08:38:06.000Z,976.6
2022-10-02T09:08:07.000Z,976.6
2022-10-02T09:38:09.000Z,976.1
2022-10-02T10:08:14.000Z,976.3
2022-10-02T10:38:22.000Z,976.2
2022-10-02T11:08:22.000Z,976.2
2022-10-02T11:38:23.000Z,975.8
2022-10-02T12:08:24.000Z,975.7
2022-10-02T12:38:27.000Z,975.7
2022-10-02T13:08:30.000Z,975.8
2022-10-02T13:38:31.000Z,975.4
2022-10-02T14:08:33.000Z,975.3
2022-10-02T14:38:35.000Z,976.2
2022-10-02T15:08:41.601Z,976.3
2022-10-02T15:38:45.783Z,976.5
2022-10-02T16:08:48.000Z,976.7
2022-10-02T16:38:54.000Z,976.6
2022-10-02T17:09:00.317Z,977
2022-10-02T17:39:01.000Z,978.1
2022-10-02T18:09:05.314Z,978.4
2022-10-02T18:39:08.000Z,979.0
2022-10-02T19:09:11.000Z,979.0
2022-10-02T19:39:13.440Z,979
2022-10-02T20:09:15.000Z,979.6
2022-10-02T20:39:22.000Z,979.9
2022-10-02T21:09:25.000Z,980.3
2022-10-02T21:39:27.000Z,980.8
2022-10-02T22:09:30.000Z,981.0
2022-10-02T22:39:39.000Z,981.2
2022-10-02T23:09:43.000Z,981.6
2022-10-02T23:39:45.000Z,981.5
